Time;durP1;ratioP1;P1;durP2;ratioP2;P2;SDS_P1;SDS_P2;PMS_P1;PMS_P2;Temp;Humidity;BMP_temperature;BMP_pressure;BME280_temperature;BME280_humidity;BME280_pressure;Samples;Min_cycle;Max_cycle;Signal;HPM_P1;HPM_P2
2022/06/27 00:00:26;;;;;;;11.20;7.17;;;17.10;99.90;;;;;;5074228;28;20626;-59
2022/06/27 00:02:52;;;;;;;10.27;7.50;;;17.10;99.90;;;;;;5073900;28;20578;-59
2022/06/27 00:05:18;;;;;;;9.13;7.33;;;17.20;99.90;;;;;;5074485;28;20283;-60
2022/06/27 00:07:43;;;;;;;10.20;7.37;;;17.10;99.90;;;;;;5073976;28;20182;-62
2022/06/27 00:10:10;;;;;;;12.90;7.20;;;17.10;99.90;;;;;;5074379;28;20621;-59
2022/06/27 00:12:37;;;;;;;9.77;7.50;;;17.10;99.90;;;;;;5073873;28;20755;-59
2022/06/27 00:15:04;;;;;;;11.70;6.97;;;17.10;99.90;;;;;;5073984;28;20193;-60
2022/06/27 00:17:29;;;;;;;12.33;7.73;;;17.10;99.90;;;;;;5084243;28;20207;-59
2022/06/27 00:19:55;;;;;;;12.67;7.20;;;17.10;99.90;;;;;;5094040;28;20173;-59
2022/06/27 00:22:21;;;;;;;11.43;6.80;;;17.10;99.90;;;;;;5094060;28;20216;-59
2022/06/27 00:24:47;;;;;;;8.70;7.03;;;17.10;99.90;;;;;;5093980;28;20256;-59
2022/06/27 00:27:13;;;;;;;11.50;7.27;;;17.00;99.90;;;;;;5094305;28;20180;-59
2022/06/27 00:29:40;;;;;;;11.77;6.80;;;17.00;99.90;;;;;;5094074;28;20218;-59
2022/06/27 00:32:07;;;;;;;14.73;7.07;;;17.00;99.90;;;;;;5093640;28;20688;-59
2022/06/27 00:34:32;;;;;;;11.63;7.27;;;17.00;99.90;;;;;;5093848;28;20195;-59
2022/06/27 00:36:58;;;;;;;11.57;6.67;;;17.00;99.90;;;;;;5093786;28;20177;-59
2022/06/27 00:39:24;;;;;;;11.77;7.27;;;17.10;99.90;;;;;;5091482;28;20192;-60
2022/06/27 00:41:50;;;;;;;11.27;6.23;;;17.10;99.90;;;;;;5091271;28;20181;-60
2022/06/27 00:44:30;;;;;;;12.27;6.13;;;17.10;99.90;;;;;;5073403;28;20197;-59
2022/06/27 00:46:56;;;;;;;11.30;6.60;;;17.20;99.90;;;;;;5091687;28;20195;-60
2022/06/27 00:49:21;;;;;;;8.17;5.90;;;17.30;99.90;;;;;;5091791;28;20181;-60
2022/06/27 00:51:47;;;;;;;9.67;6.37;;;17.30;99.90;;;;;;5091220;28;20204;-59
2022/06/27 00:54:13;;;;;;;9.23;6.43;;;17.30;99.90;;;;;;5091700;28;20534;-60
2022/06/27 00:56:39;;;;;;;10.50;6.20;;;17.40;99.90;;;;;;5091684;28;20226;-61
2022/06/27 00:59:05;;;;;;;7.30;6.20;;;17.40;99.90;;;;;;5093294;28;20668;-59
2022/06/27 01:01:31;;;;;;;10.10;6.57;;;17.50;99.90;;;;;;5093413;28;20181;-59
2022/06/27 01:04:01;;;;;;;9.37;6.33;;;17.50;99.90;;;;;;5092914;28;20263;-60
2022/06/27 01:06:30;;;;;;;9.73;6.60;;;17.50;99.90;;;;;;5093390;28;20184;-59
2022/06/27 01:08:55;;;;;;;10.20;7.10;;;17.50;99.90;;;;;;5093079;28;20186;-60
2022/06/27 01:11:21;;;;;;;12.87;6.83;;;17.50;99.90;;;;;;5093400;28;20205;-59
2022/06/27 01:13:48;;;;;;;12.23;6.63;;;17.50;99.90;;;;;;5093018;28;20203;-61
2022/06/27 01:16:15;;;;;;;12.43;7.27;;;17.50;99.90;;;;;;5093064;28;20640;-59
2022/06/27 01:18:41;;;;;;;11.67;6.40;;;17.50;99.90;;;;;;5072826;28;20184;-59
2022/06/27 01:21:07;;;;;;;11.37;6.63;;;17.50;99.90;;;;;;5072578;28;20185;-59
2022/06/27 01:23:36;;;;;;;12.47;6.93;;;17.50;99.90;;;;;;5073402;28;20648;-59
2022/06/27 01:26:03;;;;;;;14.27;7.03;;;17.50;99.90;;;;;;5072611;28;20208;-59
2022/06/27 01:28:29;;;;;;;11.40;7.07;;;17.50;99.90;;;;;;5072824;28;20178;-60
2022/06/27 01:30:55;;;;;;;10.37;7.00;;;17.50;99.90;;;;;;5072348;28;20205;-59
2022/06/27 01:33:21;;;;;;;7.93;6.77;;;17.50;99.90;;;;;;5072906;28;20537;-60
2022/06/27 01:35:47;;;;;;;9.13;6.60;;;17.50;99.90;;;;;;5072555;28;20184;-60
2022/06/27 01:38:12;;;;;;;8.90;6.20;;;17.50;99.90;;;;;;5054212;28;20181;-60
2022/06/27 01:40:39;;;;;;;11.03;6.73;;;17.50;99.90;;;;;;5072410;28;20586;-60
2022/06/27 01:43:06;;;;;;;9.83;7.00;;;17.50;99.90;;;;;;5072586;28;20256;-60
2022/06/27 01:45:33;;;;;;;14.80;6.77;;;17.60;99.90;;;;;;5054371;28;20185;-60
2022/06/27 01:47:59;;;;;;;9.70;5.37;;;17.60;99.90;;;;;;5072060;28;20634;-60
2022/06/27 01:50:25;;;;;;;8.50;5.63;;;17.60;99.90;;;;;;5072347;28;20617;-60
2022/06/27 01:52:52;;;;;;;8.67;6.10;;;17.60;99.90;;;;;;5077115;28;20208;-60
2022/06/27 01:55:19;;;;;;;11.93;6.13;;;17.60;99.90;;;;;;5092759;28;20196;-60
2022/06/27 01:57:47;;;;;;;7.37;5.70;;;17.60;99.90;;;;;;5092405;28;20260;-60
2022/06/27 02:00:14;;;;;;;8.07;5.70;;;17.60;99.90;;;;;;5092367;28;20177;-60
2022/06/27 02:02:42;;;;;;;8.60;5.73;;;17.60;99.90;;;;;;5091643;28;20224;-60
2022/06/27 02:05:08;;;;;;;10.23;5.87;;;17.60;99.90;;;;;;5073426;28;20563;-60
2022/06/27 02:07:37;;;;;;;12.27;6.00;;;17.60;99.90;;;;;;5092472;28;20181;-60
2022/06/27 02:10:04;;;;;;;7.77;6.23;;;17.50;99.90;;;;;;5091644;28;20529;-60
2022/06/27 02:12:30;;;;;;;8.73;6.03;;;17.50;99.90;;;;;;5092305;28;20223;-60
2022/06/27 02:14:55;;;;;;;7.40;6.13;;;17.50;99.90;;;;;;5091811;28;20182;-59
2022/06/27 02:17:22;;;;;;;8.97;5.60;;;17.50;99.90;;;;;;5082733;28;20178;-60
2022/06/27 02:19:48;;;;;;;9.03;5.97;;;17.30;99.90;;;;;;5071595;28;20239;-60
2022/06/27 02:22:15;;;;;;;11.83;6.27;;;17.20;99.90;;;;;;5071551;28;20193;-60
2022/06/27 02:24:41;;;;;;;8.60;5.93;;;17.00;99.90;;;;;;5071874;28;20232;-60
2022/06/27 02:27:09;;;;;;;11.63;6.77;;;16.90;99.90;;;;;;5071135;28;20501;-60
2022/06/27 02:29:36;;;;;;;12.10;6.53;;;16.90;99.90;;;;;;5071734;28;20188;-60
2022/06/27 02:32:02;;;;;;;9.87;6.23;;;16.80;99.90;;;;;;5071137;28;20209;-61
2022/06/27 02:34:29;;;;;;;11.13;6.13;;;16.80;99.90;;;;;;5071430;28;20177;-62
2022/06/27 02:36:56;;;;;;;8.53;6.30;;;16.70;99.90;;;;;;5071413;28;20177;-61
2022/06/27 02:39:24;;;;;;;12.37;6.37;;;16.70;99.90;;;;;;5071673;28;20216;-61
2022/06/27 02:41:54;;;;;;;9.23;6.10;;;16.70;99.90;;;;;;5053362;28;20614;-61
2022/06/27 02:44:21;;;;;;;7.47;6.00;;;16.70;99.90;;;;;;5071589;28;20173;-62
2022/06/27 02:46:49;;;;;;;10.03;6.47;;;16.70;99.90;;;;;;5071232;28;20189;-61
2022/06/27 02:49:15;;;;;;;8.23;5.93;;;16.70;99.90;;;;;;5071213;28;20223;-61
2022/06/27 02:51:48;;;;;;;9.70;6.17;;;16.80;99.90;;;;;;5071582;28;20613;-61
2022/06/27 02:54:21;;;;;;;9.83;6.17;;;16.80;99.90;;;;;;5088157;28;20234;-61
2022/06/27 02:56:51;;;;;;;8.87;6.57;;;16.80;99.90;;;;;;5073533;28;20185;-61
2022/06/27 02:59:21;;;;;;;8.60;6.10;;;16.90;99.90;;;;;;5091290;28;20269;-61
2022/06/27 03:01:48;;;;;;;9.97;6.80;;;16.90;99.90;;;;;;5073506;28;20529;-61
2022/06/27 03:04:14;;;;;;;8.43;6.40;;;17.00;99.90;;;;;;5091173;28;20274;-62
2022/06/27 03:06:40;;;;;;;10.77;5.93;;;17.00;99.90;;;;;;5091482;28;20201;-61
2022/06/27 03:09:06;;;;;;;8.53;5.47;;;17.10;99.90;;;;;;5091347;28;20295;-61
2022/06/27 03:11:32;;;;;;;10.50;6.07;;;17.20;99.90;;;;;;5091267;28;20201;-61
2022/06/27 03:13:57;;;;;;;11.00;7.07;;;17.30;99.90;;;;;;5091008;28;20196;-61
2022/06/27 03:16:24;;;;;;;11.80;6.60;;;17.30;99.90;;;;;;5092591;28;20538;-61
2022/06/27 03:18:50;;;;;;;9.27;5.57;;;17.40;99.90;;;;;;5074865;28;20199;-61
2022/06/27 03:21:20;;;;;;;9.73;6.07;;;17.50;99.90;;;;;;5074907;28;20182;-60
2022/06/27 03:23:47;;;;;;;8.40;5.43;;;17.50;99.90;;;;;;5074664;28;20182;-61
2022/06/27 03:26:14;;;;;;;10.57;5.93;;;17.50;99.90;;;;;;5074605;28;20533;-60
2022/06/27 03:28:40;;;;;;;16.73;6.43;;;17.60;99.90;;;;;;5074539;28;20185;-61
2022/06/27 03:31:06;;;;;;;19.50;7.00;;;17.60;99.90;;;;;;5074551;28;20228;-61
2022/06/27 03:33:32;;;;;;;9.03;5.73;;;17.60;99.90;;;;;;5073998;28;20268;-61
2022/06/27 03:35:57;;;;;;;8.37;5.97;;;17.70;99.90;;;;;;5074272;28;20270;-61
2022/06/27 03:38:23;;;;;;;10.73;6.27;;;17.70;99.90;;;;;;5074558;28;20227;-61
2022/06/27 03:40:49;;;;;;;14.77;7.20;;;17.80;99.90;;;;;;5074750;28;20178;-60
2022/06/27 03:43:15;;;;;;;10.57;6.03;;;17.80;99.90;;;;;;5056263;28;20193;-60
2022/06/27 03:45:41;;;;;;;11.13;6.20;;;17.90;99.90;;;;;;5074372;28;20194;-60
2022/06/27 03:48:07;;;;;;;14.47;6.70;;;17.90;99.90;;;;;;5073763;28;20554;-60
2022/06/27 03:50:34;;;;;;;12.93;6.50;;;17.90;99.90;;;;;;5074135;28;20178;-61
2022/06/27 03:53:00;;;;;;;20.93;6.30;;;18.00;99.90;;;;;;5080794;28;20251;-61
2022/06/27 03:55:26;;;;;;;12.77;6.47;;;18.00;99.90;;;;;;5094377;28;20213;-61
2022/06/27 03:57:54;;;;;;;12.60;6.03;;;18.10;99.90;;;;;;5094217;28;20180;-61
2022/06/27 04:00:22;;;;;;;10.43;6.30;;;18.10;99.90;;;;;;5094229;28;20223;-61
2022/06/27 04:02:49;;;;;;;14.30;6.47;;;18.20;99.90;;;;;;5075656;28;20632;-61
2022/06/27 04:05:15;;;;;;;10.43;6.13;;;18.20;99.90;;;;;;5094076;28;20230;-61
2022/06/27 04:07:41;;;;;;;11.43;6.47;;;18.20;99.90;;;;;;5094149;28;20702;-61
2022/06/27 04:10:12;;;;;;;13.90;6.72;;;18.30;99.90;;;;;;5075840;28;20290;-61
2022/06/27 04:12:38;;;;;;;10.23;6.63;;;18.40;99.90;;;;;;5093967;28;20215;-61
2022/06/27 04:15:05;;;;;;;14.95;7.70;;;18.60;99.90;;;;;;5093714;28;20206;-61
2022/06/27 04:17:32;;;;;;;15.48;6.90;;;18.60;99.90;;;;;;5083661;28;20518;-61
2022/06/27 04:19:58;;;;;;;8.20;6.78;;;18.60;99.90;;;;;;5073364;28;20188;-63
2022/06/27 04:22:24;;;;;;;10.80;6.63;;;18.70;99.90;;;;;;5073572;28;20630;-61
2022/06/27 04:24:50;;;;;;;17.65;6.57;;;18.80;99.90;;;;;;5073119;28;20264;-60
2022/06/27 04:27:17;;;;;;;12.15;6.43;;;19.10;99.90;;;;;;5072698;28;20622;-61
2022/06/27 04:29:44;;;;;;;10.88;6.35;;;19.20;99.90;;;;;;5073034;28;20631;-61
2022/06/27 04:32:10;;;;;;;15.70;7.50;;;19.40;99.90;;;;;;5054597;28;20294;-61
2022/06/27 04:34:39;;;;;;;9.35;5.63;;;19.50;99.90;;;;;;5072277;28;20196;-61
2022/06/27 04:37:05;;;;;;;12.45;6.03;;;19.50;99.90;;;;;;5072804;28;20190;-61
2022/06/27 04:39:31;;;;;;;13.80;6.20;;;19.40;99.90;;;;;;5038452;28;20760;-61
2022/06/27 04:41:57;;;;;;;7.88;4.90;;;19.40;99.90;;;;;;5072861;28;20193;-60
2022/06/27 04:44:24;;;;;;;13.38;5.97;;;19.20;99.90;;;;;;5072596;28;20181;-60
2022/06/27 04:46:50;;;;;;;12.57;6.35;;;19.20;99.90;;;;;;5072811;28;20192;-61
2022/06/27 04:49:18;;;;;;;11.68;5.70;;;19.10;99.90;;;;;;5072008;28;20182;-61
2022/06/27 04:51:45;;;;;;;19.80;6.30;;;19.00;99.90;;;;;;5072300;28;20198;-61
2022/06/27 04:54:11;;;;;;;14.63;5.82;;;18.90;99.90;;;;;;5088549;28;20185;-60
2022/06/27 04:56:43;;;;;;;9.13;4.80;;;18.90;99.90;;;;;;5092652;28;20290;-60
2022/06/27 04:59:09;;;;;;;38.03;8.63;;;18.90;99.90;;;;;;5092542;28;20310;-61
2022/06/27 05:01:36;;;;;;;10.80;5.32;;;19.10;99.90;;;;;;5074587;28;20275;-60
2022/06/27 05:04:02;;;;;;;9.05;5.70;;;19.20;99.90;;;;;;5073367;28;20276;-61
2022/06/27 05:06:28;;;;;;;13.80;5.53;;;19.30;99.90;;;;;;5091819;28;20581;-60
2022/06/27 05:08:54;;;;;;;17.33;5.72;;;19.40;99.90;;;;;;5073031;28;20246;-62
2022/06/27 05:11:20;;;;;;;7.10;5.43;;;19.60;99.90;;;;;;5092107;28;20200;-62
2022/06/27 05:13:45;;;;;;;13.38;5.85;;;19.70;99.90;;;;;;5092301;28;20191;-61
2022/06/27 05:16:12;;;;;;;11.98;6.20;;;19.90;99.90;;;;;;5091698;28;20180;-60
2022/06/27 05:18:37;;;;;;;10.18;5.57;;;19.90;99.90;;;;;;5072475;28;20192;-60
2022/06/27 05:21:03;;;;;;;12.63;5.60;;;19.90;99.90;;;;;;5071299;28;20189;-61
2022/06/27 05:23:29;;;;;;;24.63;7.22;;;19.90;99.90;;;;;;5071534;28;20170;-62
2022/06/27 05:25:55;;;;;;;13.55;6.40;;;19.80;99.90;;;;;;5071238;28;20645;-61
2022/06/27 05:28:21;;;;;;;14.05;6.78;;;19.70;99.90;;;;;;5070813;28;21131;-62
2022/06/27 05:30:47;;;;;;;16.92;6.55;;;19.70;99.90;;;;;;5071037;28;20192;-62
2022/06/27 05:33:13;;;;;;;13.77;7.50;;;19.60;99.90;;;;;;5071248;28;20186;-61
2022/06/27 05:35:40;;;;;;;17.77;8.15;;;19.60;99.90;;;;;;5071253;28;20198;-61
2022/06/27 05:38:06;;;;;;;15.00;7.05;;;19.50;99.90;;;;;;5070846;28;20192;-60
2022/06/27 05:40:33;;;;;;;19.17;7.80;;;19.50;99.90;;;;;;5071611;28;20532;-61
2022/06/27 05:42:59;;;;;;;22.25;7.18;;;19.80;99.90;;;;;;5070215;28;20271;-60
2022/06/27 05:45:25;;;;;;;13.80;6.82;;;20.10;99.90;;;;;;5079085;28;20272;-60
2022/06/27 05:47:59;;;;;;;15.57;7.68;;;20.40;99.90;;;;;;5087885;28;20187;-65
2022/06/27 05:50:25;;;;;;;20.70;7.65;;;20.70;99.90;;;;;;5091061;28;20192;-65
2022/06/27 05:52:53;;;;;;;13.48;6.97;;;20.90;99.90;;;;;;5085664;28;20661;-62
2022/06/27 05:55:21;;;;;;;11.77;6.97;;;21.00;99.90;;;;;;5070898;28;20532;-65
2022/06/27 05:57:47;;;;;;;28.42;13.82;;;21.30;99.90;;;;;;5074597;28;20196;-63
2022/06/27 06:00:15;;;;;;;30.38;16.60;;;21.40;99.90;;;;;;5080139;28;20197;-65
2022/06/27 06:02:41;;;;;;;17.13;8.57;;;21.70;99.90;;;;;;5061630;28;20204;-63
2022/06/27 06:05:11;;;;;;;14.50;7.45;;;21.80;99.90;;;;;;5079889;28;20271;-63
2022/06/27 06:07:37;;;;;;;12.65;7.45;;;21.90;99.90;;;;;;5080607;28;20215;-65
2022/06/27 06:10:04;;;;;;;19.38;12.40;;;21.80;99.90;;;;;;5079675;28;20249;-68
2022/06/27 06:12:30;;;;;;;16.55;8.00;;;21.80;99.90;;;;;;5080284;28;20738;-63
2022/06/27 06:15:02;;;;;;;15.80;7.20;;;21.70;99.90;;;;;;5062398;28;20205;-65
2022/06/27 06:17:33;;;;;;;12.85;7.50;;;21.80;99.90;;;;;;5075629;28;20197;-64
2022/06/27 06:19:59;;;;;;;18.00;8.13;;;21.80;99.90;;;;;;5078999;28;20193;-61
2022/06/27 06:22:26;;;;;;;17.17;8.10;;;21.90;99.90;;;;;;5078185;28;20661;-64
2022/06/27 06:24:52;;;;;;;14.98;8.88;;;22.00;99.90;;;;;;5079401;28;20636;-65
2022/06/27 06:27:19;;;;;;;22.17;8.75;;;22.40;99.90;;;;;;5078113;28;20201;-67
2022/06/27 06:29:47;;;;;;;13.88;7.72;;;22.60;99.90;;;;;;5077978;28;20660;-65
2022/06/27 06:32:13;;;;;;;14.68;8.60;;;22.90;99.90;;;;;;5081006;28;20215;-63
2022/06/27 06:34:39;;;;;;;14.88;6.75;;;22.90;99.90;;;;;;5062410;28;20211;-67
2022/06/27 06:37:06;;;;;;;18.08;8.23;;;22.80;99.90;;;;;;5079628;28;20195;-63
2022/06/27 06:39:32;;;;;;;16.77;8.07;;;22.70;99.90;;;;;;5061401;28;20200;-65
2022/06/27 06:41:58;;;;;;;17.63;7.75;;;22.60;99.90;;;;;;5080063;28;20258;-64
2022/06/27 06:44:24;;;;;;;9.75;6.30;;;22.70;99.90;;;;;;5078643;28;20193;-63
2022/06/27 06:46:55;;;;;;;13.55;6.85;;;22.90;99.90;;;;;;5060855;28;20246;-66
2022/06/27 06:49:21;;;;;;;11.45;6.40;;;23.30;99.90;;;;;;5080178;28;20200;-63
2022/06/27 06:51:48;;;;;;;9.57;5.82;;;23.50;99.90;;;;;;5082919;28;20221;-64
2022/06/27 06:54:17;;;;;;;10.50;5.50;;;24.10;99.90;;;;;;5082462;28;20607;-64
2022/06/27 06:56:46;;;;;;;13.50;5.95;;;24.30;99.90;;;;;;5083069;28;20668;-65
2022/06/27 06:59:12;;;;;;;10.88;5.35;;;24.10;99.90;;;;;;5083017;28;20193;-65
2022/06/27 07:01:39;;;;;;;11.07;5.47;;;23.90;99.90;;;;;;5082871;28;20201;-62
2022/06/27 07:04:05;;;;;;;11.40;6.47;;;23.70;99.90;;;;;;5083188;28;20282;-63
2022/06/27 07:06:32;;;;;;;15.30;5.68;;;23.70;99.90;;;;;;5082886;28;20243;-64
2022/06/27 07:08:59;;;;;;;10.73;5.72;;;23.70;99.90;;;;;;5083319;28;20655;-66
2022/06/27 07:11:29;;;;;;;12.55;5.53;;;23.60;99.90;;;;;;5082853;28;20270;-64
2022/06/27 07:13:56;;;;;;;16.08;6.22;;;23.60;99.90;;;;;;5062902;28;20246;-63
2022/06/27 07:16:24;;;;;;;11.70;6.63;;;23.60;99.90;;;;;;5083291;28;20720;-59
2022/06/27 07:18:50;;;;;;;13.48;6.15;;;23.50;99.90;;;;;;5082410;28;20186;-64
2022/06/27 07:21:18;;;;;;;14.85;5.40;;;23.50;99.90;;;;;;5082766;28;20271;-63
2022/06/27 07:23:48;;;;;;;8.32;5.47;;;23.60;99.90;;;;;;5082037;28;20177;-66
2022/06/27 07:26:16;;;;;;;7.88;5.60;;;23.80;99.90;;;;;;5083077;28;20265;-65
2022/06/27 07:28:42;;;;;;;13.25;5.97;;;23.80;99.90;;;;;;5083213;28;20203;-62
2022/06/27 07:31:11;;;;;;;8.95;5.68;;;23.90;99.90;;;;;;5082539;28;20672;-61
2022/06/27 07:33:41;;;;;;;11.75;6.13;;;23.80;99.90;;;;;;5083288;28;20205;-62
2022/06/27 07:36:11;;;;;;;12.52;6.28;;;23.80;99.90;;;;;;5064459;28;20227;-62
2022/06/27 07:38:40;;;;;;;13.00;6.68;;;23.80;99.90;;;;;;5082618;28;20208;-64
2022/06/27 07:41:07;;;;;;;9.18;6.63;;;23.80;99.90;;;;;;5082100;28;20223;-61
2022/06/27 07:43:33;;;;;;;10.25;5.90;;;23.80;99.90;;;;;;5081436;28;20197;-63
2022/06/27 07:46:01;;;;;;;11.10;6.45;;;23.90;99.90;;;;;;5082144;28;20553;-67
2022/06/27 07:48:27;;;;;;;12.48;6.25;;;24.00;99.90;;;;;;5082106;28;20554;-75
2022/06/27 07:50:54;;;;;;;9.75;6.10;;;24.10;99.90;;;;;;5082077;28;20268;-72
2022/06/27 07:53:20;;;;;;;9.05;6.10;;;24.00;99.90;;;;;;5082447;28;20188;-69
2022/06/27 07:55:58;;;;;;;12.90;6.07;;;24.00;99.90;;;;;;5082422;28;20637;-65
2022/06/27 07:58:38;;;;;;;13.15;5.60;;;24.00;99.90;;;;;;5081910;28;20186;-64
2022/06/27 08:01:10;;;;;;;9.10;5.22;;;24.10;99.90;;;;;;5081335;28;20181;-62
2022/06/27 08:03:38;;;;;;;8.05;5.68;;;24.20;99.90;;;;;;5081768;28;20276;-64
2022/06/27 08:06:14;;;;;;;9.00;5.60;;;24.30;99.90;;;;;;5081498;28;20177;-65
2022/06/27 08:08:45;;;;;;;11.93;5.53;;;24.40;99.90;;;;;;5081269;28;20172;-62
2022/06/27 08:11:17;;;;;;;17.88;6.38;;;24.50;99.90;;;;;;5081413;28;20229;-62
2022/06/27 08:13:45;;;;;;;8.95;5.55;;;24.70;99.90;;;;;;5081440;28;20306;-62
2022/06/27 08:16:15;;;;;;;18.45;5.78;;;25.00;99.90;;;;;;5080899;28;20569;-65
2022/06/27 08:18:44;;;;;;;12.18;6.15;;;25.10;99.90;;;;;;5081629;28;20200;-63
2022/06/27 08:21:10;;;;;;;11.80;5.80;;;25.30;99.90;;;;;;5081502;28;20211;-65
2022/06/27 08:23:37;;;;;;;6.47;5.18;;;25.70;99.90;;;;;;5081814;28;20189;-66
2022/06/27 08:26:09;;;;;;;10.50;5.32;;;25.90;99.90;;;;;;5063181;28;20295;-64
2022/06/27 08:28:37;;;;;;;11.27;5.50;;;25.90;99.60;;;;;;5079762;28;20649;-63
2022/06/27 08:31:07;;;;;;;9.93;4.63;;;26.00;99.70;;;;;;5081477;28;20190;-63
2022/06/27 08:33:34;;;;;;;9.88;4.82;;;26.10;99.10;;;;;;5080610;28;20189;-66
2022/06/27 08:36:02;;;;;;;6.22;4.60;;;25.80;99.10;;;;;;5045682;28;20306;-67
2022/06/27 08:38:29;;;;;;;9.68;5.40;;;26.00;99.30;;;;;;5080644;28;20280;-64
2022/06/27 08:40:56;;;;;;;8.75;5.32;;;26.30;98.60;;;;;;5081084;28;20197;-65
2022/06/27 08:43:23;;;;;;;9.10;4.72;;;26.60;97.80;;;;;;5080056;28;20272;-65
2022/06/27 08:45:51;;;;;;;12.13;5.40;;;26.70;97.00;;;;;;5081465;28;20189;-63
2022/06/27 08:48:17;;;;;;;6.10;4.28;;;27.00;96.40;;;;;;5080814;28;20201;-66
2022/06/27 08:50:45;;;;;;;9.15;4.25;;;27.40;95.40;;;;;;5081466;28;20565;-70
2022/06/27 08:53:12;;;;;;;14.38;7.32;;;27.60;94.80;;;;;;5081566;28;20219;-70
2022/06/27 08:55:46;;;;;;;9.40;4.97;;;27.80;94.90;;;;;;5081049;28;20193;-66
2022/06/27 08:58:13;;;;;;;9.82;3.80;;;28.00;94.20;;;;;;5080185;28;20675;-64
2022/06/27 09:00:45;;;;;;;12.73;4.57;;;28.00;93.10;;;;;;5037883;28;20189;-74
2022/06/27 09:03:21;;;;;;;9.55;3.85;;;28.30;91.90;;;;;;5079756;28;20241;-61
2022/06/27 09:05:57;;;;;;;8.48;4.10;;;28.30;91.40;;;;;;5081062;28;20196;-63
2022/06/27 09:08:28;;;;;;;4.68;3.58;;;28.20;91.50;;;;;;5080260;28;20184;-64
2022/06/27 09:10:56;;;;;;;6.55;3.53;;;28.10;90.80;;;;;;5081085;28;20181;-67
2022/06/27 09:13:23;;;;;;;10.80;4.40;;;28.10;90.90;;;;;;5080158;28;20181;-63
2022/06/27 09:15:53;;;;;;;7.13;3.88;;;28.30;90.70;;;;;;5079973;28;20224;-62
2022/06/27 09:18:34;;;;;;;10.30;4.30;;;28.40;90.50;;;;;;5080093;28;20181;-63
2022/06/27 09:21:06;;;;;;;17.05;5.15;;;28.90;90.20;;;;;;5080571;28;20525;-66
2022/06/27 09:23:50;;;;;;;9.55;3.47;;;29.10;88.90;;;;;;5061781;28;20548;-62
2022/06/27 09:26:19;;;;;;;10.48;4.70;;;29.30;86.50;;;;;;5080060;28;20209;-64
2022/06/27 09:29:01;;;;;;;9.35;4.55;;;29.40;86.50;;;;;;5080216;28;20250;-64
2022/06/27 09:31:28;;;;;;;8.55;4.00;;;28.80;87.00;;;;;;5080196;28;20262;-67
2022/06/27 09:34:02;;;;;;;9.82;4.35;;;28.60;87.60;;;;;;5079676;28;20201;-63
2022/06/27 09:36:30;;;;;;;8.40;4.07;;;28.40;88.50;;;;;;5080304;28;20682;-62
2022/06/27 09:38:56;;;;;;;11.15;4.22;;;28.50;87.80;;;;;;5079964;28;20284;-65
2022/06/27 09:41:25;;;;;;;13.80;3.80;;;28.60;86.70;;;;;;5079656;28;20181;-67
2022/06/27 09:43:52;;;;;;;7.45;3.72;;;28.80;85.20;;;;;;5079995;28;20669;-63
2022/06/27 09:46:18;;;;;;;9.20;4.07;;;28.60;84.60;;;;;;5079987;28;20523;-64
2022/06/27 09:48:45;;;;;;;16.13;6.07;;;28.80;84.00;;;;;;5079775;28;20566;-63
2022/06/27 09:51:18;;;;;;;9.63;4.07;;;29.10;83.80;;;;;;5079928;28;20232;-64
2022/06/27 09:53:50;;;;;;;12.02;4.25;;;29.10;82.70;;;;;;5080035;28;20213;-73
2022/06/27 09:56:20;;;;;;;12.45;4.68;;;29.00;81.40;;;;;;5078387;28;20186;-62
2022/06/27 09:58:46;;;;;;;6.22;3.80;;;29.30;81.50;;;;;;5080101;28;20288;-66
2022/06/27 10:01:12;;;;;;;12.85;4.65;;;29.50;81.20;;;;;;5079762;28;20222;-62
2022/06/27 10:03:40;;;;;;;6.55;3.40;;;29.70;80.10;;;;;;5079009;28;20312;-61
2022/06/27 10:06:07;;;;;;;8.80;4.32;;;29.50;79.60;;;;;;5079335;28;20203;-60
2022/06/27 10:08:34;;;;;;;14.50;4.70;;;29.60;78.80;;;;;;5078510;28;20189;-62
2022/06/27 10:11:00;;;;;;;8.02;4.20;;;29.40;79.50;;;;;;5079175;28;20649;-62
2022/06/27 10:13:28;;;;;;;8.75;3.47;;;29.20;81.10;;;;;;5079024;28;20192;-60
2022/06/27 10:15:58;;;;;;;6.32;3.70;;;29.00;79.50;;;;;;5079635;28;20189;-61
2022/06/27 10:18:24;;;;;;;6.57;4.03;;;29.00;80.20;;;;;;5078909;28;20239;-60
2022/06/27 10:20:51;;;;;;;5.63;3.78;;;29.10;79.80;;;;;;5079091;28;20510;-61
2022/06/27 10:23:19;;;;;;;8.02;3.40;;;28.80;78.70;;;;;;5078222;28;20273;-60
2022/06/27 10:25:48;;;;;;;8.13;3.65;;;28.50;79.70;;;;;;5078147;28;20683;-60
2022/06/27 10:28:15;;;;;;;7.45;3.60;;;28.60;80.70;;;;;;5061348;28;20192;-62
2022/06/27 10:31:00;;;;;;;15.82;5.30;;;28.90;78.50;;;;;;5079819;28;20193;-61
2022/06/27 10:33:26;;;;;;;9.85;3.70;;;29.40;79.80;;;;;;5078784;28;20292;-60
2022/06/27 10:35:55;;;;;;;17.88;4.47;;;29.80;77.90;;;;;;5079485;28;20265;-61
2022/06/27 10:38:49;;;;;;;14.18;6.00;;;30.00;78.80;;;;;;5060584;28;20275;-63
2022/06/27 10:41:18;;;;;;;7.72;4.68;;;30.40;77.70;;;;;;5077125;28;20580;-61
2022/06/27 10:43:48;;;;;;;8.35;3.60;;;30.60;77.20;;;;;;5079350;28;20232;-61
2022/06/27 10:46:17;;;;;;;9.85;4.18;;;30.90;74.60;;;;;;5079328;28;20534;-62
2022/06/27 10:48:48;;;;;;;5.40;3.45;;;31.30;73.90;;;;;;5078794;28;20185;-61
2022/06/27 10:51:31;;;;;;;11.55;3.75;;;31.60;72.70;;;;;;5079226;28;20191;-62
2022/06/27 10:54:05;;;;;;;6.47;3.88;;;31.40;71.80;;;;;;5079316;28;20197;-61
2022/06/27 10:56:57;;;;;;;12.68;3.38;;;31.20;72.80;;;;;;5078282;28;20939;-62
2022/06/27 10:59:25;;;;;;;9.15;3.90;;;31.60;71.50;;;;;;5074948;28;20744;-62
2022/06/27 11:01:51;;;;;;;9.35;3.40;;;32.00;70.10;;;;;;5079155;28;20238;-61
2022/06/27 11:04:35;;;;;;;10.00;4.20;;;32.40;67.50;;;;;;5078195;28;20241;-60
2022/06/27 11:07:08;;;;;;;8.57;3.47;;;32.40;67.70;;;;;;5078785;28;20184;-60
2022/06/27 11:09:52;;;;;;;11.02;4.38;;;32.50;66.10;;;;;;5078665;28;20200;-60
2022/06/27 11:12:20;;;;;;;9.52;3.97;;;32.50;68.10;;;;;;5060183;28;20566;-64
2022/06/27 11:14:55;;;;;;;19.75;4.90;;;32.90;65.00;;;;;;5059048;28;20183;-62
2022/06/27 11:17:44;;;;;;;11.48;4.40;;;32.60;66.20;;;;;;5078928;28;20586;-62
2022/06/27 11:20:26;;;;;;;7.70;3.45;;;32.10;66.30;;;;;;5078201;28;20601;-61
2022/06/27 11:23:00;;;;;;;8.27;4.32;;;31.60;66.60;;;;;;5078905;28;20223;-63
2022/06/27 11:25:27;;;;;;;12.77;5.22;;;31.60;67.80;;;;;;5077930;28;20237;-64
2022/06/27 11:33:31;;;;;;;7.70;3.42;;;37.00;58.20;;;;;;5078661;28;20287;-61
2022/06/27 11:35:58;;;;;;;7.13;3.40;;;38.30;51.70;;;;;;5078423;28;20223;-63
2022/06/27 11:38:29;;;;;;;7.93;3.05;;;37.70;50.40;;;;;;5082416;28;20185;-61
2022/06/27 11:41:07;;;;;;;7.45;3.63;;;39.20;49.20;;;;;;5082399;28;20709;-62
2022/06/27 11:44:07;;;;;;;8.30;3.70;;;40.00;47.20;;;;;;5082273;28;20605;-62
2022/06/27 11:46:35;;;;;;;14.02;6.63;;;40.70;46.40;;;;;;5029158;28;20295;-66
2022/06/27 11:49:09;;;;;;;3.85;3.15;;;40.60;44.70;;;;;;5083022;28;20180;-63
2022/06/27 11:51:42;;;;;;;6.47;3.00;;;40.00;44.40;;;;;;5081804;28;20514;-64
2022/06/27 11:54:14;;;;;;;8.73;3.53;;;38.70;44.70;;;;;;5082746;28;20185;-69
2022/06/27 11:56:44;;;;;;;9.57;4.05;;;38.40;46.70;;;;;;5081528;28;20180;-63
2022/06/27 11:59:12;;;;;;;8.95;3.30;;;37.50;46.90;;;;;;5082467;28;20238;-64
2022/06/27 12:02:01;;;;;;;8.38;4.00;;;36.60;48.00;;;;;;5083254;28;20259;-66
2022/06/27 12:04:30;;;;;;;11.10;3.63;;;34.90;49.30;;;;;;5081731;28;20319;-76
2022/06/27 12:06:58;;;;;;;6.13;2.90;;;34.10;51.60;;;;;;5082552;28;20200;-68
2022/06/27 12:09:26;;;;;;;5.05;3.08;;;34.30;51.90;;;;;;5063979;28;20199;-72
2022/06/27 12:12:01;;;;;;;4.97;2.40;;;35.00;50.20;;;;;;5082059;28;20258;-67
2022/06/27 12:14:29;;;;;;;7.65;3.65;;;36.10;48.20;;;;;;5081188;28;20275;-66
2022/06/27 12:16:58;;;;;;;0.40;0.40;;;35.90;47.90;;;;;;5081342;28;20239;-63
2022/06/27 12:19:26;;;;;;;0.00;0.00;;;35.40;49.90;;;;;;5081702;28;20193;-65
2022/06/27 12:21:52;;;;;;;0.50;0.50;;;34.60;51.40;;;;;;5081204;28;20521;-64
2022/06/27 12:24:18;;;;;;;0.00;0.00;;;33.90;52.90;;;;;;5082139;28;20604;-64
2022/06/27 12:26:44;;;;;;;0.22;0.20;;;33.20;53.50;;;;;;5081523;28;20227;-63
2022/06/27 12:29:10;;;;;;;1.17;0.75;;;32.70;54.00;;;;;;5081772;28;20225;-63
2022/06/27 12:31:37;;;;;;;0.00;0.00;;;32.20;55.20;;;;;;5081384;28;20240;-62
2022/06/27 12:34:04;;;;;;;9.02;0.98;;;31.60;56.90;;;;;;5081378;28;20310;-61
2022/06/27 12:36:31;;;;;;;0.00;0.00;;;31.00;58.00;;;;;;5081286;28;20236;-61
2022/06/27 12:38:58;;;;;;;0.00;0.00;;;30.50;59.40;;;;;;5063545;28;20248;-63
2022/06/27 12:41:24;;;;;;;0.25;0.25;;;30.20;59.50;;;;;;5081439;28;20280;-66
2022/06/27 12:43:50;;;;;;;0.85;0.30;;;29.80;60.40;;;;;;5063913;28;20192;-63
2022/06/27 12:46:17;;;;;;;0.00;0.00;;;29.40;61.40;;;;;;5081320;28;20186;-66
2022/06/27 12:48:43;;;;;;;0.00;0.00;;;29.30;61.90;;;;;;5080413;28;20192;-62
2022/06/27 12:51:09;;;;;;;0.00;0.00;;;29.30;62.50;;;;;;5081008;28;20399;-61